Time;durP1;ratioP1;P1;durP2;ratioP2;P2;SDS_P1;SDS_P2;PMS_P1;PMS_P2;Temp;Humidity;BMP_temperature;BMP_pressure;BME280_temperature;BME280_humidity;BME280_pressure;Samples;Min_cycle;Max_cycle;Signal;HPM_P1;HPM_P2
2022/01/21 00:01:55;;;;;;;1.93;1.10;;;;;;;-0.94;82.89;101827.44;5052730;28;20258;-49
2022/01/21 00:04:21;;;;;;;4.67;1.30;;;;;;;-1.08;80.35;101819.72;5051490;28;20240;-50
2022/01/21 00:06:48;;;;;;;6.87;1.10;;;;;;;-1.03;79.80;101823.47;5058352;28;20249;-52
2022/01/21 00:09:14;;;;;;;3.07;1.20;;;;;;;-1.06;79.32;101828.44;5055421;28;20234;-46
2022/01/21 00:11:41;;;;;;;7.80;2.00;;;;;;;-1.10;79.66;101833.31;5062720;28;20301;-47
2022/01/21 00:14:07;;;;;;;4.47;1.47;;;;;;;-1.11;78.49;101832.41;5057134;28;20236;-46
2022/01/21 00:16:38;;;;;;;4.20;0.90;;;;;;;-0.98;80.38;101831.50;5059838;28;20261;-51
2022/01/21 00:19:09;;;;;;;2.63;1.57;;;;;;;-1.02;78.85;101834.66;5059153;28;20237;-53
2022/01/21 00:30:12;;;;;;;2.47;1.10;;;;;;;-1.11;79.20;101842.72;5040259;28;20296;-49
2022/01/21 00:32:41;;;;;;;5.60;1.10;;;;;;;-1.02;77.61;101855.28;5045985;28;20234;-49
2022/01/21 00:35:07;;;;;;;2.23;1.00;;;;;;;-1.10;78.47;101852.22;5034224;28;20230;-50
2022/01/21 00:37:34;;;;;;;1.60;0.87;;;;;;;-1.09;77.49;101854.03;5033938;28;20238;-49
2022/01/21 00:40:02;;;;;;;6.07;1.13;;;;;;;-1.07;77.56;101857.59;5028387;28;20235;-46
2022/01/21 00:42:47;;;;;;;2.63;1.33;;;;;;;-1.08;76.93;101862.66;5035767;28;20307;-48
2022/01/21 00:45:15;;;;;;;2.67;1.50;;;;;;;-1.10;76.72;101865.09;5037598;28;20231;-50
2022/01/21 00:47:44;;;;;;;2.17;1.10;;;;;;;-1.03;77.07;101880.16;5040125;28;20344;-53
2022/01/21 00:50:11;;;;;;;3.43;1.03;;;;;;;-1.15;76.50;101869.09;5037703;28;20235;-51
2022/01/21 00:52:38;;;;;;;4.27;1.13;;;;;;;-1.11;77.63;101885.63;5041536;28;20238;-49
2022/01/21 00:55:05;;;;;;;3.97;1.03;;;;;;;-1.14;77.44;101878.59;5041272;28;20719;-50
2022/01/21 00:57:31;;;;;;;6.30;1.40;;;;;;;-1.12;79.65;101883.84;5039274;28;20299;-48
2022/01/21 00:59:58;;;;;;;1.33;0.90;;;;;;;-1.13;77.31;101879.47;5045141;28;20230;-49
2022/01/21 01:02:24;;;;;;;3.00;1.10;;;;;;;-1.16;77.17;101882.75;5045897;28;20249;-47
2022/01/21 01:04:52;;;;;;;3.17;1.10;;;;;;;-1.15;77.51;101883.66;5044553;28;20238;-50
2022/01/21 01:07:19;;;;;;;3.20;1.40;;;;;;;-1.10;76.92;101884.84;5029610;28;20288;-49
2022/01/21 01:09:51;;;;;;;3.40;1.30;;;;;;;-1.06;78.28;101900.59;5044629;28;20262;-47
2022/01/21 01:12:27;;;;;;;0.93;0.67;;;;;;;-1.07;77.54;101887.63;5043345;28;20242;-50
2022/01/21 01:20:22;;;;;;;2.83;1.30;;;;;;;-1.31;78.52;101890.38;5057810;28;20294;-48
2022/01/21 01:22:54;;;;;;;1.27;0.90;;;;;;;-1.38;80.37;101888.19;5063957;28;20235;-49
2022/01/21 01:28:05;;;;;;;5.70;1.27;;;;;;;-1.22;77.33;101897.84;5063000;28;21326;-49
2022/01/21 01:30:35;;;;;;;2.73;1.23;;;;;;;-1.26;77.72;101888.13;5065049;28;20233;-50
2022/01/21 01:33:02;;;;;;;1.53;1.00;;;;;;;-1.26;78.73;101890.69;5065732;28;20475;-48
2022/01/21 01:35:33;;;;;;;2.87;0.90;;;;;;;-1.40;78.87;101894.03;5065156;28;20228;-49
2022/01/21 01:38:19;;;;;;;1.20;0.93;;;;;;;-1.36;77.55;101893.47;5065034;28;20231;-50
2022/01/21 01:40:49;;;;;;;1.63;1.03;;;;;;;-1.34;77.98;101902.16;5065361;28;20241;-52
2022/01/21 01:51:31;;;;;;;4.67;1.40;;;;;;;-1.38;79.03;101905.34;5050234;28;20296;-50
2022/01/21 01:54:01;;;;;;;5.70;1.57;;;;;;;-1.46;78.14;101902.25;5037640;28;20260;-50
2022/01/21 01:56:30;;;;;;;0.93;0.80;;;;;;;-1.33;78.86;101906.56;5046794;28;20235;-51
2022/01/21 01:58:57;;;;;;;2.97;1.17;;;;;;;-1.37;78.84;101901.97;5041752;28;20230;-50
2022/01/21 02:01:23;;;;;;;0.93;0.90;;;;;;;-1.35;80.27;101905.53;5035242;28;20266;-49
2022/01/21 02:03:50;;;;;;;9.53;1.83;;;;;;;-1.26;77.40;101891.59;5046714;28;20553;-52
2022/01/21 02:06:16;;;;;;;1.90;0.87;;;;;;;-1.25;76.86;101893.38;5060748;28;20276;-47
2022/01/21 02:08:45;;;;;;;1.17;0.83;;;;;;;-1.29;76.69;101890.50;5061712;28;20260;-49
2022/01/21 02:11:11;;;;;;;6.87;1.50;;;;;;;-1.31;77.95;101892.94;5058177;28;20758;-49
2022/01/21 02:13:43;;;;;;;1.93;1.07;;;;;;;-1.36;77.36;101894.34;5055608;28;20264;-50
2022/01/21 02:16:17;;;;;;;1.47;0.83;;;;;;;-1.42;78.12;101900.78;5052793;28;20332;-53
2022/01/21 02:21:36;;;;;;;5.27;1.43;;;;;;;-1.52;78.97;101896.69;5055340;28;20318;-51
2022/01/21 02:24:06;;;;;;;2.90;1.10;;;;;;;-1.41;77.29;101903.44;5056144;28;20283;-48
2022/01/21 02:26:33;;;;;;;6.40;1.30;;;;;;;-1.39;78.51;101913.88;5060914;28;20272;-50
2022/01/21 02:29:01;;;;;;;1.27;0.97;;;;;;;-1.40;78.66;101907.81;5062720;28;20291;-48
2022/01/21 02:31:27;;;;;;;6.03;1.70;;;;;;;-1.39;77.44;101908.72;5061055;28;20745;-49
2022/01/21 02:33:54;;;;;;;3.17;1.63;;;;;;;-1.46;78.29;101904.84;5063147;28;20303;-49
2022/01/21 02:36:20;;;;;;;2.20;0.80;;;;;;;-1.38;80.30;101913.94;5061109;28;20233;-51
2022/01/21 02:38:48;;;;;;;1.83;1.40;;;;;;;-1.33;77.67;101925.47;5061347;28;20324;-51
2022/01/21 02:41:14;;;;;;;3.03;1.13;;;;;;;-1.39;78.91;101922.47;5063290;28;20633;-50
2022/01/21 02:43:41;;;;;;;5.33;1.20;;;;;;;-1.38;77.93;101925.94;5062369;28;20770;-49
2022/01/21 02:46:09;;;;;;;2.87;1.53;;;;;;;-1.38;79.04;101925.94;5055158;28;20968;-51
2022/01/21 02:48:37;;;;;;;3.37;1.17;;;;;;;-1.34;80.12;101930.50;5051256;28;20598;-51
2022/01/21 02:51:05;;;;;;;4.13;1.30;;;;;;;-1.48;78.93;101929.59;5062545;28;20316;-49
2022/01/21 02:53:40;;;;;;;1.33;0.77;;;;;;;-1.47;77.86;101927.13;5063635;28;20314;-49
2022/01/21 02:56:10;;;;;;;3.87;1.07;;;;;;;-1.47;78.81;101932.28;5063187;28;20320;-50
2022/01/21 02:58:37;;;;;;;3.63;1.37;;;;;;;-1.50;78.84;101937.22;5063660;28;20254;-52
2022/01/21 03:01:04;;;;;;;5.07;1.40;;;;;;;-1.42;79.01;101936.84;5062371;28;20260;-50
2022/01/21 03:03:30;;;;;;;5.83;1.43;;;;;;;-1.47;79.97;101937.44;5065320;28;20282;-50
2022/01/21 03:05:57;;;;;;;1.07;0.97;;;;;;;-1.48;80.17;101945.91;5056202;28;20288;-52
2022/01/21 03:08:23;;;;;;;1.73;1.27;;;;;;;-1.50;79.23;101934.66;5065338;28;20851;-52
2022/01/21 03:10:50;;;;;;;7.10;1.50;;;;;;;-1.44;78.78;101934.13;5063554;28;20334;-49
2022/01/21 03:13:21;;;;;;;1.93;1.00;;;;;;;-1.40;80.81;101940.38;5064897;28;20240;-49
2022/01/21 03:15:48;;;;;;;3.13;1.87;;;;;;;-1.47;79.85;101931.38;5061564;28;20308;-49
2022/01/21 03:18:14;;;;;;;2.40;1.40;;;;;;;-1.45;78.43;101924.63;5063775;28;20222;-50
2022/01/21 03:20:41;;;;;;;5.83;1.40;;;;;;;-1.48;77.65;101925.31;5059929;28;20265;-49
2022/01/21 03:23:08;;;;;;;2.83;1.27;;;;;;;-1.46;79.84;101928.91;5044813;28;20694;-50
2022/01/21 03:25:35;;;;;;;1.80;0.90;;;;;;;-1.53;79.47;101923.25;5062580;28;20237;-49
2022/01/21 03:28:01;;;;;;;2.67;0.80;;;;;;;-1.48;79.72;101932.16;5063786;28;20237;-47
2022/01/21 03:30:29;;;;;;;1.53;1.30;;;;;;;-1.40;78.94;101927.50;5063718;28;20233;-50
2022/01/21 03:32:55;;;;;;;5.57;2.20;;;;;;;-1.58;80.02;101935.81;5057133;28;20296;-49
2022/01/21 03:35:22;;;;;;;2.90;1.03;;;;;;;-1.54;78.63;101940.38;5066901;28;20651;-50
2022/01/21 03:37:48;;;;;;;2.93;0.90;;;;;;;-1.47;77.92;101947.72;5067498;28;20308;-49
2022/01/21 03:40:14;;;;;;;4.53;1.30;;;;;;;-1.45;80.56;101940.09;5068551;28;20257;-48
2022/01/21 03:42:41;;;;;;;1.30;0.80;;;;;;;-1.57;79.08;101947.00;5068300;28;20242;-49
2022/01/21 03:45:09;;;;;;;2.30;1.10;;;;;;;-1.54;79.77;101950.69;5057071;28;20284;-50
2022/01/21 03:47:37;;;;;;;1.63;1.07;;;;;;;-1.69;78.38;101949.63;5078067;28;20233;-54
2022/01/21 03:50:19;;;;;;;6.60;1.20;;;;;;;-1.66;78.00;101957.56;5087992;28;20225;-52
2022/01/21 03:52:46;;;;;;;3.93;1.33;;;;;;;-1.77;77.12;101953.38;5088347;28;20241;-51
2022/01/21 03:55:12;;;;;;;4.20;1.57;;;;;;;-1.66;78.41;101970.44;5088214;28;20236;-50
2022/01/21 03:57:38;;;;;;;3.73;0.90;;;;;;;-1.76;78.21;101962.88;5087867;28;20245;-51
2022/01/21 04:00:05;;;;;;;3.10;1.07;;;;;;;-1.77;78.93;101971.41;5085962;28;20656;-47
2022/01/21 04:02:32;;;;;;;2.70;0.97;;;;;;;-1.74;78.84;101966.47;5070654;28;20241;-57
2022/01/21 04:04:59;;;;;;;5.87;1.30;;;;;;;-1.76;77.90;101961.19;5078778;28;20325;-52
2022/01/21 04:07:26;;;;;;;2.27;1.27;;;;;;;-1.79;78.98;101958.44;5080000;28;20239;-50
2022/01/21 04:09:52;;;;;;;2.40;1.50;;;;;;;-1.76;78.32;101965.44;5087380;28;20233;-51
2022/01/21 04:12:18;;;;;;;1.87;1.37;;;;;;;-1.83;79.32;101970.97;5076266;28;20230;-50
2022/01/21 04:14:45;;;;;;;8.17;1.40;;;;;;;-1.79;78.53;101960.09;5080629;28;20256;-52
2022/01/21 04:17:11;;;;;;;4.33;1.37;;;;;;;-1.84;77.15;101964.03;5084036;28;20234;-51
2022/01/21 04:19:38;;;;;;;2.93;1.03;;;;;;;-1.86;76.87;101957.88;5081862;28;20336;-49
2022/01/21 04:22:06;;;;;;;5.23;1.50;;;;;;;-1.93;77.57;101967.78;5074568;28;20343;-54
2022/01/21 04:24:33;;;;;;;1.07;0.97;;;;;;;-1.87;78.25;101951.84;5081496;28;20249;-52
2022/01/21 04:26:59;;;;;;;3.53;1.60;;;;;;;-1.88;78.41;101962.06;5081073;28;20237;-49
2022/01/21 04:29:25;;;;;;;6.03;2.00;;;;;;;-1.97;76.99;101972.59;5077907;28;20246;-49
2022/01/21 04:31:52;;;;;;;4.97;1.90;;;;;;;-2.05;77.99;101972.06;5081159;28;20236;-52
2022/01/21 04:34:18;;;;;;;2.43;1.50;;;;;;;-1.94;77.75;101972.81;5080047;28;20222;-52
2022/01/21 04:36:44;;;;;;;3.73;1.93;;;;;;;-1.93;76.77;101980.66;5082469;28;20247;-53
2022/01/21 04:39:18;;;;;;;3.13;1.33;;;;;;;-2.02;76.27;101982.56;5081427;28;20257;-51
2022/01/21 04:47:15;;;;;;;4.37;1.27;;;;;;;-1.96;76.21;101975.28;5076725;28;20302;-49
2022/01/21 04:47:24;;;;;;;3.17;1.27;;;;;;;-1.98;77.88;101966.56;5074226;28;20236;-49
2022/01/21 04:49:51;;;;;;;2.90;1.63;;;;;;;-2.10;77.03;101970.84;5090079;28;20229;-52
2022/01/21 04:52:17;;;;;;;3.50;1.77;;;;;;;-2.08;79.34;101979.56;5085718;28;20222;-52
2022/01/21 04:54:45;;;;;;;7.50;1.63;;;;;;;-2.04;78.01;101976.41;5069971;28;20247;-52
2022/01/21 04:57:12;;;;;;;6.67;2.23;;;;;;;-2.10;78.14;101976.00;5086186;28;20294;-50
2022/01/21 04:59:40;;;;;;;2.93;1.63;;;;;;;-2.06;78.44;101970.28;5082384;28;20263;-50
2022/01/21 05:02:06;;;;;;;5.13;1.80;;;;;;;-2.05;77.47;101959.19;5077913;28;20228;-54
2022/01/21 05:04:33;;;;;;;4.63;1.50;;;;;;;-2.01;77.51;101974.06;5082632;28;20235;-52
2022/01/21 05:07:01;;;;;;;8.87;2.17;;;;;;;-2.12;78.76;101975.00;5076307;28;20240;-51
2022/01/21 05:09:31;;;;;;;7.77;2.13;;;;;;;-2.06;78.33;101975.44;5068411;28;20225;-52
2022/01/21 05:12:01;;;;;;;4.23;1.17;;;;;;;-2.16;79.70;101970.41;5072408;28;20225;-50
2022/01/21 05:14:42;;;;;;;2.33;1.40;;;;;;;-2.15;79.47;101979.91;5066825;28;20238;-50
2022/01/21 05:17:10;;;;;;;6.10;1.70;;;;;;;-2.09;77.66;101977.78;5067282;28;20228;-50
2022/01/21 05:19:37;;;;;;;2.83;1.37;;;;;;;-1.94;79.58;101973.69;5067821;28;20233;-50
2022/01/21 05:22:04;;;;;;;2.30;1.70;;;;;;;-2.02;78.88;101977.41;5061877;28;20315;-48
2022/01/21 05:24:31;;;;;;;4.23;1.83;;;;;;;-2.14;78.85;101975.66;5060244;28;20230;-48
2022/01/21 05:26:58;;;;;;;5.60;1.87;;;;;;;-2.20;78.91;101979.59;5064929;28;20388;-52
2022/01/21 05:29:28;;;;;;;2.73;1.33;;;;;;;-2.16;79.44;101973.00;5061163;28;20233;-50
2022/01/21 05:31:55;;;;;;;6.80;2.03;;;;;;;-2.21;78.19;101969.19;5061494;28;20713;-50
2022/01/21 05:34:22;;;;;;;10.13;2.17;;;;;;;-2.00;81.56;101980.09;5064583;28;20230;-52
2022/01/21 05:36:49;;;;;;;4.63;1.60;;;;;;;-2.06;78.11;101978.00;5063476;28;20771;-49
2022/01/21 05:39:16;;;;;;;3.77;1.57;;;;;;;-2.10;78.31;101981.16;5059168;28;20233;-50
2022/01/21 05:41:46;;;;;;;3.63;1.63;;;;;;;-2.07;77.45;101977.88;5055649;28;20773;-48
2022/01/21 05:44:18;;;;;;;6.10;1.30;;;;;;;-2.14;78.08;101979.16;5059299;28;20366;-49
2022/01/21 05:46:54;;;;;;;3.27;1.07;;;;;;;-2.23;79.65;101968.22;5050177;28;20242;-46
2022/01/21 05:49:21;;;;;;;4.10;1.73;;;;;;;-2.17;78.47;101960.94;5059593;28;20251;-50
2022/01/21 05:51:47;;;;;;;5.03;1.80;;;;;;;-2.29;79.31;101962.63;5054122;28;20302;-49
2022/01/21 05:54:14;;;;;;;5.60;1.63;;;;;;;-2.24;80.81;101964.75;5062492;28;20310;-49
2022/01/21 05:56:41;;;;;;;3.07;2.03;;;;;;;-2.17;79.19;101969.53;5061508;28;20247;-48
2022/01/21 05:59:08;;;;;;;8.67;2.17;;;;;;;-2.20;80.10;101969.31;5062333;28;20230;-51
2022/01/21 06:01:35;;;;;;;2.40;1.33;;;;;;;-2.25;80.00;101967.19;5061286;28;20230;-49
2022/01/21 06:04:03;;;;;;;1.87;1.30;;;;;;;-2.31;79.29;101965.09;5058894;28;20856;-50
2022/01/21 06:06:30;;;;;;;6.90;1.80;;;;;;;-2.24;79.02;101966.44;5056991;28;20237;-50
2022/01/21 06:08:56;;;;;;;4.03;1.57;;;;;;;-2.23;78.32;101957.91;5059347;28;20287;-50
2022/01/21 06:11:23;;;;;;;7.37;1.97;;;;;;;-2.13;81.39;101959.47;5064703;28;20235;-51
2022/01/21 06:13:50;;;;;;;5.57;2.00;;;;;;;-2.22;79.07;101958.00;5067880;28;20234;-47
2022/01/21 06:16:17;;;;;;;3.93;1.30;;;;;;;-2.16;78.84;101962.72;5063012;28;20276;-50
2022/01/21 06:18:43;;;;;;;5.03;1.70;;;;;;;-2.13;79.46;101962.91;5063807;28;20249;-52
2022/01/21 06:21:11;;;;;;;1.50;1.40;;;;;;;-2.13;78.42;101960.34;5058866;28;20253;-48
2022/01/21 06:23:38;;;;;;;6.87;1.37;;;;;;;-2.09;77.45;101970.06;5053914;28;20315;-46
2022/01/21 06:26:04;;;;;;;2.83;1.60;;;;;;;-2.20;77.71;101963.28;5059768;28;20254;-49
2022/01/21 06:28:31;;;;;;;3.87;1.93;;;;;;;-2.18;78.85;101966.84;5060887;28;20316;-49
2022/01/21 06:30:57;;;;;;;4.70;1.47;;;;;;;-2.19;79.92;101965.94;5059280;28;20229;-50
2022/01/21 06:33:24;;;;;;;2.13;1.57;;;;;;;-2.23;80.85;101979.38;5062921;28;20290;-49
2022/01/21 06:35:50;;;;;;;8.63;1.93;;;;;;;-2.07;80.98;101981.38;5061484;28;20283;-48
2022/01/21 06:38:19;;;;;;;8.27;1.80;;;;;;;-2.10;79.70;101980.25;5057114;28;20325;-49
2022/01/21 06:40:46;;;;;;;3.80;1.47;;;;;;;-2.18;79.96;101983.19;5053306;28;20261;-49
2022/01/21 06:43:13;;;;;;;5.17;1.60;;;;;;;-2.12;80.71;101985.28;5062106;28;20264;-50
2022/01/21 06:45:40;;;;;;;4.03;1.33;;;;;;;-2.07;81.78;101986.50;5063366;28;20241;-49
2022/01/21 06:48:06;;;;;;;3.33;1.80;;;;;;;-2.18;80.62;101982.28;5057925;28;20225;-49
2022/01/21 06:50:35;;;;;;;3.17;1.83;;;;;;;-2.19;81.57;101986.53;5063468;28;20241;-47
2022/01/21 06:53:01;;;;;;;8.33;2.23;;;;;;;-2.10;82.08;101996.59;5061222;28;20225;-51
2022/01/21 06:55:29;;;;;;;6.13;1.60;;;;;;;-2.04;80.71;101990.97;5052066;28;20254;-51
2022/01/21 06:57:56;;;;;;;5.80;1.50;;;;;;;-2.04;81.43;101991.84;5058883;28;20259;-48
2022/01/21 07:00:22;;;;;;;5.73;1.93;;;;;;;-2.03;82.63;101996.22;5052518;28;20233;-51
2022/01/21 07:02:51;;;;;;;4.10;1.63;;;;;;;-2.04;81.87;101991.84;5051669;28;20276;-51
2022/01/21 07:05:19;;;;;;;5.93;1.93;;;;;;;-2.07;81.38;101996.81;5065995;28;20281;-51
2022/01/21 07:07:46;;;;;;;3.57;1.90;;;;;;;-2.21;82.56;102000.06;5061334;28;20787;-50
2022/01/21 07:10:14;;;;;;;3.60;2.27;;;;;;;-2.20;82.58;102015.63;5058710;28;20300;-49
2022/01/21 07:12:43;;;;;;;7.57;1.97;;;;;;;-2.18;82.47;102010.56;5060032;28;20245;-51
2022/01/21 07:15:15;;;;;;;10.97;1.80;;;;;;;-2.13;83.59;102000.63;5050149;28;20611;-51
2022/01/21 07:17:42;;;;;;;8.33;1.50;;;;;;;-2.17;83.25;102008.13;5058859;28;20656;-52
2022/01/21 07:20:09;;;;;;;3.30;1.83;;;;;;;-2.06;81.76;102011.44;5063029;28;20288;-50
2022/01/21 07:22:35;;;;;;;7.83;2.33;;;;;;;-2.08;82.41;102009.53;5056738;28;20855;-50
2022/01/21 07:25:02;;;;;;;7.33;2.23;;;;;;;-2.04;82.48;102011.53;5057225;28;20311;-47
2022/01/21 07:27:28;;;;;;;7.43;1.90;;;;;;;-2.13;82.65;102013.50;5068135;28;20237;-49
2022/01/21 07:29:56;;;;;;;5.20;2.03;;;;;;;-2.13;83.37;102016.06;5061385;28;20253;-47
2022/01/21 07:32:22;;;;;;;8.57;1.93;;;;;;;-2.09;83.83;102018.06;5042898;28;20300;-46
2022/01/21 07:34:48;;;;;;;4.27;1.60;;;;;;;-2.18;84.96;102020.84;5050720;28;20234;-48
2022/01/21 07:37:14;;;;;;;4.57;1.87;;;;;;;-2.16;85.21;102032.16;5049736;28;20748;-50
2022/01/21 07:39:41;;;;;;;14.50;2.50;;;;;;;-2.11;84.64;102030.78;5058705;28;20247;-51
2022/01/21 07:42:07;;;;;;;9.17;1.87;;;;;;;-2.23;85.27;102035.09;5051602;28;20254;-50
2022/01/21 07:44:34;;;;;;;7.50;2.20;;;;;;;-2.12;85.04;102038.41;5040683;28;20263;-50
2022/01/21 07:47:02;;;;;;;3.27;1.90;;;;;;;-2.02;86.15;102036.59;5037545;28;20263;-48
2022/01/21 07:49:28;;;;;;;4.50;2.30;;;;;;;-2.08;86.07;102046.47;5061321;28;20790;-51
2022/01/21 07:51:54;;;;;;;4.13;1.37;;;;;;;-2.09;85.87;102052.41;5056982;28;20258;-49
2022/01/21 07:54:21;;;;;;;3.57;1.73;;;;;;;-1.97;85.52;102045.53;5047742;28;20359;-50
2022/01/21 07:56:47;;;;;;;4.27;2.27;;;;;;;-1.97;86.25;102044.63;5062445;28;20287;-51
2022/01/21 07:59:14;;;;;;;6.33;2.20;;;;;;;-1.89;85.60;102033.22;5054665;28;20312;-49
2022/01/21 08:01:41;;;;;;;11.67;1.87;;;;;;;-1.92;86.17;102040.72;5063035;28;20266;-52
2022/01/21 08:04:10;;;;;;;3.53;1.97;;;;;;;-1.95;86.59;102037.94;5061174;28;20647;-49
2022/01/21 08:06:36;;;;;;;10.60;2.17;;;;;;;-1.96;86.87;102031.91;5065379;28;20248;-50
2022/01/21 08:09:04;;;;;;;4.43;1.70;;;;;;;-1.68;88.98;102033.81;5055099;28;22128;-49
2022/01/21 08:11:31;;;;;;;9.03;1.80;;;;;;;-1.78;85.55;102041.69;5061629;28;20233;-50
2022/01/21 08:13:58;;;;;;;5.37;2.07;;;;;;;-1.68;85.74;102038.97;5058791;28;20296;-50
2022/01/21 08:16:24;;;;;;;5.97;1.77;;;;;;;-1.66;85.90;102042.53;5063161;28;20707;-49
2022/01/21 08:18:52;;;;;;;2.17;1.50;;;;;;;-1.64;85.47;102043.53;5062041;28;20234;-49
2022/01/21 08:21:19;;;;;;;8.37;2.00;;;;;;;-1.55;86.59;102057.03;5057047;28;20233;-47
2022/01/21 08:23:47;;;;;;;2.53;1.30;;;;;;;-1.59;86.04;102052.47;5056259;28;20786;-51
2022/01/21 08:26:13;;;;;;;8.07;2.07;;;;;;;-1.45;87.54;102044.00;5066058;28;20264;-50
2022/01/21 08:28:39;;;;;;;3.60;1.83;;;;;;;-1.43;87.17;102045.81;5058877;28;20653;-50
2022/01/21 08:31:06;;;;;;;4.27;2.20;;;;;;;-1.44;85.74;102039.75;5059625;28;20742;-49
2022/01/21 08:33:32;;;;;;;13.13;2.10;;;;;;;-1.38;85.31;102040.16;5064046;28;20234;-49
2022/01/21 08:35:58;;;;;;;5.70;1.53;;;;;;;-1.37;85.83;102049.69;5054475;28;20740;-50
2022/01/21 08:38:26;;;;;;;5.60;2.17;;;;;;;-1.37;85.38;102048.78;5053165;28;20257;-49
2022/01/21 08:40:52;;;;;;;9.93;2.57;;;;;;;-1.33;85.57;102048.22;5051846;28;20337;-50
2022/01/21 08:43:19;;;;;;;5.80;2.50;;;;;;;-1.28;86.16;102042.59;5064790;28;20237;-48
2022/01/21 08:45:45;;;;;;;7.73;2.23;;;;;;;-1.26;85.97;102040.13;5059838;28;20258;-49
2022/01/21 08:48:12;;;;;;;8.30;1.90;;;;;;;-1.21;85.33;102049.03;5058470;28;20291;-51
2022/01/21 08:50:38;;;;;;;3.63;2.37;;;;;;;-1.17;86.71;102051.03;5059660;28;20324;-50
2022/01/21 08:53:35;;;;;;;6.90;1.20;;;;;;;-1.07;86.51;102042.25;5058487;28;20796;-52
2022/01/21 08:55:55;;;;;;;8.83;2.20;;;;;;;-0.88;85.03;102041.78;5053279;28;20238;-50
2022/01/21 08:58:22;;;;;;;8.20;2.40;;;;;;;-0.90;84.46;102027.91;5063306;28;20257;-48
2022/01/21 09:00:48;;;;;;;6.23;2.13;;;;;;;-0.69;83.71;102036.16;5063725;28;20627;-52
2022/01/21 09:03:14;;;;;;;9.70;2.43;;;;;;;-0.72;83.64;102037.72;5073036;28;20261;-51
2022/01/21 09:05:48;;;;;;;12.70;2.23;;;;;;;-0.71;83.84;102036.03;5070561;28;20244;-49
2022/01/21 09:08:14;;;;;;;2.67;1.87;;;;;;;-0.66;84.07;102033.78;5058736;28;20234;-49
2022/01/21 09:10:40;;;;;;;4.60;1.90;;;;;;;-0.56;83.89;102044.78;5061040;28;20262;-51
2022/01/21 09:13:08;;;;;;;3.70;1.70;;;;;;;-0.46;83.47;102047.94;5060314;28;20226;-50
2022/01/21 09:15:36;;;;;;;6.77;2.10;;;;;;;-0.35;82.37;102054.69;5064629;28;20233;-48
2022/01/21 09:18:05;;;;;;;8.73;1.90;;;;;;;-0.26;81.42;102065.59;5061230;28;20230;-50
2022/01/21 09:20:31;;;;;;;6.77;2.77;;;;;;;-0.19;81.84;102065.22;5059501;28;20260;-51
2022/01/21 09:22:57;;;;;;;7.50;2.10;;;;;;;-0.21;81.94;102069.41;5063412;28;20237;-49
2022/01/21 09:25:24;;;;;;;6.53;2.13;;;;;;;-0.15;81.56;102064.59;5064878;28;20249;-50
2022/01/21 09:27:50;;;;;;;11.77;2.33;;;;;;;-0.23;82.67;102073.56;5056046;28;20753;-50
2022/01/21 09:30:18;;;;;;;8.97;4.27;;;;;;;-0.08;81.75;102081.38;5060784;28;20776;-49
2022/01/21 09:32:45;;;;;;;9.33;2.20;;;;;;;-0.07;82.02;102078.91;5062182;28;20886;-49
2022/01/21 09:35:11;;;;;;;7.10;1.83;;;;;;;0.01;82.22;102079.38;5061668;28;20238;-49
2022/01/21 09:37:38;;;;;;;8.93;2.30;;;;;;;0.10;81.78;102082.53;5062846;28;20268;-48
2022/01/21 09:40:06;;;;;;;14.10;2.33;;;;;;;0.07;81.70;102073.69;5062971;28;20249;-49
2022/01/21 09:42:33;;;;;;;7.70;1.77;;;;;;;0.27;80.70;102075.84;5050934;28;20777;-49
2022/01/21 09:45:00;;;;;;;5.17;1.87;;;;;;;0.26;80.45;102068.91;5056929;28;20253;-48
2022/01/21 09:47:31;;;;;;;7.77;2.23;;;;;;;0.19;80.83;102072.78;5063660;28;20241;-49
2022/01/21 09:49:58;;;;;;;3.43;1.57;;;;;;;0.23;80.18;102061.84;5058698;28;20253;-50
2022/01/21 09:52:24;;;;;;;8.03;2.20;;;;;;;0.22;81.25;102062.66;5063542;28;20250;-51
2022/01/21 09:54:53;;;;;;;8.63;2.00;;;;;;;0.21;81.36;102062.53;5061295;28;20280;-53
2022/01/21 09:57:21;;;;;;;4.17;2.17;;;;;;;0.23;81.62;102061.84;5060333;28;20237;-51
2022/01/21 09:59:48;;;;;;;3.20;1.33;;;;;;;0.36;81.08;102062.63;5063490;28;20235;-50
2022/01/21 10:02:18;;;;;;;2.57;1.50;;;;;;;0.43;80.82;102057.91;5056225;28;20230;-50
2022/01/21 10:04:47;;;;;;;7.53;1.73;;;;;;;0.45;80.59;102058.88;5056651;28;20246;-49
2022/01/21 10:07:16;;;;;;;11.07;2.20;;;;;;;0.43;80.35;102064.78;5058282;28;20279;-49
2022/01/21 10:09:43;;;;;;;6.23;1.73;;;;;;;0.57;80.28;102070.78;5057779;28;20243;-49
2022/01/21 10:12:10;;;;;;;5.50;2.00;;;;;;;0.60;80.09;102070.97;5061206;28;20283;-50
2022/01/21 10:14:37;;;;;;;9.67;2.07;;;;;;;0.62;80.01;102070.25;5058778;28;20652;-49
2022/01/21 10:17:05;;;;;;;5.17;2.37;;;;;;;0.64;79.90;102057.44;5059024;28;20424;-49
2022/01/21 10:19:32;;;;;;;3.47;1.53;;;;;;;0.63;80.41;102055.63;5060369;28;20230;-49
2022/01/21 10:22:04;;;;;;;6.07;1.67;;;;;;;0.64;80.70;102060.03;5058779;28;20734;-48
2022/01/21 10:24:34;;;;;;;6.63;2.10;;;;;;;0.56;82.29;102053.47;5056593;28;20905;-48
2022/01/21 10:27:01;;;;;;;5.93;2.23;;;;;;;0.55;83.24;102054.28;5060211;28;20291;-50
2022/01/21 10:29:35;;;;;;;3.43;1.57;;;;;;;0.64;81.84;102067.78;5062927;28;20305;-48
2022/01/21 10:32:03;;;;;;;4.73;1.60;;;;;;;0.73;81.48;102072.59;5055780;28;20307;-47
2022/01/21 10:34:30;;;;;;;3.70;1.27;;;;;;;0.71;81.44;102080.28;5054969;28;20324;-49
2022/01/21 10:37:04;;;;;;;8.17;2.30;;;;;;;0.75;80.96;102087.41;5059636;28;20235;-49
2022/01/21 10:39:34;;;;;;;4.93;2.07;;;;;;;0.76;81.23;102084.00;5060709;28;20227;-50
2022/01/21 10:42:02;;;;;;;8.90;1.97;;;;;;;0.65;81.99;102075.63;5058395;28;20228;-50
2022/01/21 10:44:30;;;;;;;9.87;2.20;;;;;;;0.62;83.86;102080.59;5058691;28;21087;-49
2022/01/21 10:47:07;;;;;;;3.13;2.03;;;;;;;0.61;83.99;102077.94;5057511;28;20245;-53
2022/01/21 10:49:34;;;;;;;6.13;2.13;;;;;;;0.60;82.30;102076.16;5065974;28;20222;-51
2022/01/21 10:52:01;;;;;;;5.37;1.77;;;;;;;0.59;83.39;102084.69;5064351;28;20260;-50
2022/01/21 10:54:30;;;;;;;3.30;1.43;;;;;;;0.68;80.43;102077.50;5071737;28;20230;-52
2022/01/21 10:57:10;;;;;;;3.90;1.87;;;;;;;0.51;83.03;102080.75;5070740;28;20245;-50
2022/01/21 10:59:54;;;;;;;3.57;1.80;;;;;;;0.36;84.56;102075.53;5066415;28;20257;-50
2022/01/21 11:02:33;;;;;;;5.77;2.53;;;;;;;0.39;86.93;102076.63;5061561;28;20402;-48
2022/01/21 11:05:02;;;;;;;8.53;3.23;;;;;;;0.46;83.88;102083.94;5050746;28;20356;-53
2022/01/21 11:07:46;;;;;;;8.43;1.80;;;;;;;0.42;85.13;102066.47;5048201;28;20296;-51
2022/01/21 11:10:46;;;;;;;5.13;1.80;;;;;;;0.41;85.57;102080.16;5054784;28;20292;-49
2022/01/21 11:13:39;;;;;;;7.37;2.00;;;;;;;0.53;83.71;102085.22;5049898;28;20943;-51
2022/01/21 11:16:09;;;;;;;7.03;2.17;;;;;;;0.53;84.69;102079.13;5060922;28;20244;-51
2022/01/21 11:18:49;;;;;;;5.73;1.67;;;;;;;0.56;81.75;102088.00;5055874;28;20237;-51
2022/01/21 11:21:16;;;;;;;2.27;1.70;;;;;;;0.56;83.76;102089.66;5061504;28;20316;-50
2022/01/21 11:23:42;;;;;;;3.97;1.60;;;;;;;0.59;81.78;102077.81;5048676;28;20227;-52
2022/01/21 11:26:14;;;;;;;6.23;1.90;;;;;;;0.84;79.90;102081.88;5050408;28;20241;-50
2022/01/21 11:28:45;;;;;;;1.90;1.50;;;;;;;0.61;81.28;102083.97;5057238;28;20315;-51
2022/01/21 11:31:13;;;;;;;4.43;2.27;;;;;;;0.72;80.48;102066.53;5058612;28;20219;-50
2022/01/21 11:33:39;;;;;;;8.10;2.50;;;;;;;0.82;79.56;102075.75;5056675;28;20292;-51
2022/01/21 11:36:07;;;;;;;6.93;2.67;;;;;;;0.77;81.20;102064.22;5061247;28;20284;-48
2022/01/21 11:38:36;;;;;;;5.43;1.80;;;;;;;0.79;79.19;102053.19;5047971;28;20262;-51
2022/01/21 11:41:05;;;;;;;9.70;1.87;;;;;;;0.76;80.03;102054.69;5057175;28;20248;-50
2022/01/21 11:43:34;;;;;;;7.13;1.60;;;;;;;0.88;77.77;102045.97;5059332;28;20233;-51
2022/01/21 11:46:17;;;;;;;5.43;3.67;;;;;;;0.80;77.95;102054.94;5060628;28;20731;-51
2022/01/21 11:48:51;;;;;;;6.33;1.70;;;;;;;0.73;78.77;102057.97;5061079;28;20238;-50
2022/01/21 11:51:22;;;;;;;3.50;1.30;;;;;;;0.78;79.09;102053.09;5058107;28;20246;-51
2022/01/21 11:53:51;;;;;;;5.67;1.87;;;;;;;0.94;79.70;102040.25;5070316;28;20226;-50
2022/01/21 11:56:39;;;;;;;2.00;1.27;;;;;;;0.97;78.58;102048.22;5059165;28;20297;-50
2022/01/21 11:59:10;;;;;;;7.37;1.67;;;;;;;0.82;83.16;102058.53;5059860;28;20249;-52
2022/01/21 12:01:40;;;;;;;6.53;1.83;;;;;;;0.86;83.02;102045.00;5057493;28;20238;-51
2022/01/21 12:04:06;;;;;;;2.30;1.57;;;;;;;0.93;82.03;102047.13;5063859;28;20498;-51